sensor_id;sensor_type;location;lat;lon;timestamp;temperature;humidity
4453;DHT22;2239;48.152;11.584;2023-02-28T00:00:09;-2.20;99.90
4453;DHT22;2239;48.152;11.584;2023-02-28T00:02:39;-2.30;99.90
4453;DHT22;2239;48.152;11.584;2023-02-28T00:05:06;-2.30;99.90
4453;DHT22;2239;48.152;11.584;2023-02-28T00:07:32;-2.30;99.90
4453;DHT22;2239;48.152;11.584;2023-02-28T00:09:58;-2.30;99.90
4453;DHT22;2239;48.152;11.584;2023-02-28T00:12:24;-2.30;99.90
4453;DHT22;2239;48.152;11.584;2023-02-28T00:14:49;-2.30;99.90
4453;DHT22;2239;48.152;11.584;2023-02-28T00:17:15;-2.30;99.90
4453;DHT22;2239;48.152;11.584;2023-02-28T00:19:43;-2.30;99.90
4453;DHT22;2239;48.152;11.584;2023-02-28T00:22:08;-2.30;99.90
4453;DHT22;2239;48.152;11.584;2023-02-28T00:24:34;-2.30;99.90
4453;DHT22;2239;48.152;11.584;2023-02-28T00:27:00;-2.30;99.90
4453;DHT22;2239;48.152;11.584;2023-02-28T00:29:25;-2.40;99.90
4453;DHT22;2239;48.152;11.584;2023-02-28T00:31:51;-2.40;99.90
4453;DHT22;2239;48.152;11.584;2023-02-28T00:34:16;-2.40;99.90
4453;DHT22;2239;48.152;11.584;2023-02-28T00:36:42;-2.50;99.90
4453;DHT22;2239;48.152;11.584;2023-02-28T00:39:11;-2.50;99.90
4453;DHT22;2239;48.152;11.584;2023-02-28T00:41:36;-2.50;99.90
4453;DHT22;2239;48.152;11.584;2023-02-28T00:44:02;-2.50;99.90
4453;DHT22;2239;48.152;11.584;2023-02-28T00:46:27;-2.50;99.90
4453;DHT22;2239;48.152;11.584;2023-02-28T00:48:53;-2.50;99.90
4453;DHT22;2239;48.152;11.584;2023-02-28T00:51:18;-2.50;99.90
4453;DHT22;2239;48.152;11.584;2023-02-28T00:53:44;-2.60;99.90
4453;DHT22;2239;48.152;11.584;2023-02-28T00:56:10;-2.60;99.90
4453;DHT22;2239;48.152;11.584;2023-02-28T00:58:35;-2.60;99.90
4453;DHT22;2239;48.152;11.584;2023-02-28T01:01:01;-2.60;99.90
4453;DHT22;2239;48.152;11.584;2023-02-28T01:03:26;-2.60;99.90
4453;DHT22;2239;48.152;11.584;2023-02-28T01:05:52;-2.60;99.90
4453;DHT22;2239;48.152;11.584;2023-02-28T01:08:21;-2.50;99.90
4453;DHT22;2239;48.152;11.584;2023-02-28T01:10:47;-2.50;99.90
4453;DHT22;2239;48.152;11.584;2023-02-28T01:13:13;-2.50;99.90
4453;DHT22;2239;48.152;11.584;2023-02-28T01:15:43;-2.60;99.90
4453;DHT22;2239;48.152;11.584;2023-02-28T01:18:09;-2.60;99.90
4453;DHT22;2239;48.152;11.584;2023-02-28T01:20:36;-2.70;99.90
4453;DHT22;2239;48.152;11.584;2023-02-28T01:23:02;-2.70;99.90
4453;DHT22;2239;48.152;11.584;2023-02-28T01:25:28;-2.70;99.90
4453;DHT22;2239;48.152;11.584;2023-02-28T01:27:53;-2.70;99.90
4453;DHT22;2239;48.152;11.584;2023-02-28T01:30:19;-2.70;99.90
4453;DHT22;2239;48.152;11.584;2023-02-28T01:32:45;-2.70;99.90
4453;DHT22;2239;48.152;11.584;2023-02-28T01:35:10;-2.70;99.90
4453;DHT22;2239;48.152;11.584;2023-02-28T01:37:36;-2.80;99.90
4453;DHT22;2239;48.152;11.584;2023-02-28T01:40:02;-2.80;99.90
4453;DHT22;2239;48.152;11.584;2023-02-28T01:42:27;-2.80;99.90
4453;DHT22;2239;48.152;11.584;2023-02-28T01:45:04;-2.80;99.90
4453;DHT22;2239;48.152;11.584;2023-02-28T01:47:38;-2.80;99.90
4453;DHT22;2239;48.152;11.584;2023-02-28T01:50:09;-2.80;99.90
4453;DHT22;2239;48.152;11.584;2023-02-28T01:52:37;-2.90;99.90
4453;DHT22;2239;48.152;11.584;2023-02-28T01:55:04;-2.90;99.90
4453;DHT22;2239;48.152;11.584;2023-02-28T01:57:35;-2.90;99.90
4453;DHT22;2239;48.152;11.584;2023-02-28T02:00:15;-2.90;99.90
4453;DHT22;2239;48.152;11.584;2023-02-28T02:02:43;-2.90;99.90
4453;DHT22;2239;48.152;11.584;2023-02-28T02:05:14;-2.90;99.90
4453;DHT22;2239;48.152;11.584;2023-02-28T02:07:41;-2.90;99.90
4453;DHT22;2239;48.152;11.584;2023-02-28T02:10:12;-2.90;99.90
4453;DHT22;2239;48.152;11.584;2023-02-28T02:15:16;-3.00;99.90
4453;DHT22;2239;48.152;11.584;2023-02-28T02:17:47;-3.00;99.90
4453;DHT22;2239;48.152;11.584;2023-02-28T02:29:17;-3.10;99.90
4453;DHT22;2239;48.152;11.584;2023-02-28T02:34:43;-3.10;99.90
4453;DHT22;2239;48.152;11.584;2023-02-28T02:42:47;-3.10;99.90
4453;DHT22;2239;48.152;11.584;2023-02-28T02:47:45;-3.20;99.90
4453;DHT22;2239;48.152;11.584;2023-02-28T02:50:19;-3.10;99.90
4453;DHT22;2239;48.152;11.584;2023-02-28T02:52:52;-3.20;99.90
4453;DHT22;2239;48.152;11.584;2023-02-28T02:55:20;-3.20;99.90
4453;DHT22;2239;48.152;11.584;2023-02-28T02:57:50;-3.20;99.90
4453;DHT22;2239;48.152;11.584;2023-02-28T03:00:22;-3.20;99.90
4453;DHT22;2239;48.152;11.584;2023-02-28T03:02:50;-3.20;99.90
4453;DHT22;2239;48.152;11.584;2023-02-28T03:05:25;-3.30;99.90
4453;DHT22;2239;48.152;11.584;2023-02-28T03:07:51;-3.30;99.90
4453;DHT22;2239;48.152;11.584;2023-02-28T03:10:37;-3.20;99.90
4453;DHT22;2239;48.152;11.584;2023-02-28T03:16:07;-3.30;99.90
4453;DHT22;2239;48.152;11.584;2023-02-28T03:24:54;-3.30;99.90
4453;DHT22;2239;48.152;11.584;2023-02-28T03:27:40;-3.30;99.90
4453;DHT22;2239;48.152;11.584;2023-02-28T03:30:12;-3.30;99.90
4453;DHT22;2239;48.152;11.584;2023-02-28T03:32:50;-3.20;99.90
4453;DHT22;2239;48.152;11.584;2023-02-28T03:35:21;-3.30;99.90
4453;DHT22;2239;48.152;11.584;2023-02-28T03:37:51;-3.30;99.90
4453;DHT22;2239;48.152;11.584;2023-02-28T03:40:22;-3.30;99.90
4453;DHT22;2239;48.152;11.584;2023-02-28T03:42:54;-3.30;99.90
4453;DHT22;2239;48.152;11.584;2023-02-28T03:45:30;-3.30;99.90
4453;DHT22;2239;48.152;11.584;2023-02-28T03:48:02;-3.30;99.90
4453;DHT22;2239;48.152;11.584;2023-02-28T03:50:39;-3.30;99.90
4453;DHT22;2239;48.152;11.584;2023-02-28T03:53:16;-3.30;99.90
4453;DHT22;2239;48.152;11.584;2023-02-28T03:55:58;-3.30;99.90
4453;DHT22;2239;48.152;11.584;2023-02-28T03:58:37;-3.30;99.90
4453;DHT22;2239;48.152;11.584;2023-02-28T04:01:15;-3.30;99.90
4453;DHT22;2239;48.152;11.584;2023-02-28T04:03:42;-3.20;99.90
4453;DHT22;2239;48.152;11.584;2023-02-28T04:06:14;-3.30;99.90
4453;DHT22;2239;48.152;11.584;2023-02-28T04:08:41;-3.20;99.90
4453;DHT22;2239;48.152;11.584;2023-02-28T04:13:38;-3.30;99.90
4453;DHT22;2239;48.152;11.584;2023-02-28T04:16:07;-3.20;99.90
4453;DHT22;2239;48.152;11.584;2023-02-28T04:18:41;-3.30;99.90
4453;DHT22;2239;48.152;11.584;2023-02-28T04:21:08;-3.20;99.90
4453;DHT22;2239;48.152;11.584;2023-02-28T04:23:34;-3.20;99.90
4453;DHT22;2239;48.152;11.584;2023-02-28T04:25:59;-3.20;99.90
4453;DHT22;2239;48.152;11.584;2023-02-28T04:28:25;-3.10;99.90
4453;DHT22;2239;48.152;11.584;2023-02-28T04:30:58;-3.10;99.90
4453;DHT22;2239;48.152;11.584;2023-02-28T04:33:24;-3.10;99.90
4453;DHT22;2239;48.152;11.584;2023-02-28T04:36:00;-3.10;99.90
4453;DHT22;2239;48.152;11.584;2023-02-28T04:38:26;-3.00;99.90
4453;DHT22;2239;48.152;11.584;2023-02-28T04:40:51;-3.00;99.90
4453;DHT22;2239;48.152;11.584;2023-02-28T04:43:17;-2.90;99.90
4453;DHT22;2239;48.152;11.584;2023-02-28T04:45:42;-2.80;99.90
4453;DHT22;2239;48.152;11.584;2023-02-28T04:48:08;-2.90;99.90
4453;DHT22;2239;48.152;11.584;2023-02-28T04:50:33;-2.80;99.90
4453;DHT22;2239;48.152;11.584;2023-02-28T04:52:59;-2.80;99.90
4453;DHT22;2239;48.152;11.584;2023-02-28T04:55:24;-2.80;99.90
4453;DHT22;2239;48.152;11.584;2023-02-28T04:57:50;-2.80;99.90
4453;DHT22;2239;48.152;11.584;2023-02-28T05:00:16;-2.70;99.90
4453;DHT22;2239;48.152;11.584;2023-02-28T05:02:42;-2.70;99.90
4453;DHT22;2239;48.152;11.584;2023-02-28T05:05:08;-2.70;99.90
4453;DHT22;2239;48.152;11.584;2023-02-28T05:07:33;-2.70;99.90
4453;DHT22;2239;48.152;11.584;2023-02-28T05:09:59;-2.70;99.90
4453;DHT22;2239;48.152;11.584;2023-02-28T05:12:24;-2.70;99.90
4453;DHT22;2239;48.152;11.584;2023-02-28T05:14:50;-2.60;99.90
4453;DHT22;2239;48.152;11.584;2023-02-28T05:17:16;-2.60;99.90
4453;DHT22;2239;48.152;11.584;2023-02-28T05:19:42;-2.60;99.90
4453;DHT22;2239;48.152;11.584;2023-02-28T05:22:13;-2.50;99.90
4453;DHT22;2239;48.152;11.584;2023-02-28T05:24:40;-2.50;99.90
4453;DHT22;2239;48.152;11.584;2023-02-28T05:27:08;-2.50;99.90
4453;DHT22;2239;48.152;11.584;2023-02-28T05:29:33;-2.60;99.90
4453;DHT22;2239;48.152;11.584;2023-02-28T05:31:59;-2.50;99.90
4453;DHT22;2239;48.152;11.584;2023-02-28T05:34:25;-2.40;99.90
4453;DHT22;2239;48.152;11.584;2023-02-28T05:36:50;-2.40;99.90
4453;DHT22;2239;48.152;11.584;2023-02-28T05:39:16;-2.40;99.90
4453;DHT22;2239;48.152;11.584;2023-02-28T05:41:42;-2.40;99.90
4453;DHT22;2239;48.152;11.584;2023-02-28T05:44:08;-2.40;99.90
4453;DHT22;2239;48.152;11.584;2023-02-28T05:46:34;-2.40;99.90
4453;DHT22;2239;48.152;11.584;2023-02-28T05:49:00;-2.30;99.90
4453;DHT22;2239;48.152;11.584;2023-02-28T05:51:26;-2.40;99.90
4453;DHT22;2239;48.152;11.584;2023-02-28T05:53:51;-2.30;99.90
4453;DHT22;2239;48.152;11.584;2023-02-28T05:56:17;-2.30;99.90
4453;DHT22;2239;48.152;11.584;2023-02-28T05:58:42;-2.30;99.90
4453;DHT22;2239;48.152;11.584;2023-02-28T06:01:22;-2.30;99.90
4453;DHT22;2239;48.152;11.584;2023-02-28T06:03:48;-2.30;99.90
4453;DHT22;2239;48.152;11.584;2023-02-28T06:06:14;-2.30;99.90
4453;DHT22;2239;48.152;11.584;2023-02-28T06:08:39;-2.30;99.90
4453;DHT22;2239;48.152;11.584;2023-02-28T06:11:05;-2.30;99.90
4453;DHT22;2239;48.152;11.584;2023-02-28T06:13:31;-2.30;99.90
4453;DHT22;2239;48.152;11.584;2023-02-28T06:16:00;-2.30;99.90
4453;DHT22;2239;48.152;11.584;2023-02-28T06:18:26;-2.30;99.90
4453;DHT22;2239;48.152;11.584;2023-02-28T06:20:53;-2.30;99.90
4453;DHT22;2239;48.152;11.584;2023-02-28T06:23:20;-2.30;99.90
4453;DHT22;2239;48.152;11.584;2023-02-28T06:25:46;-2.20;99.90
4453;DHT22;2239;48.152;11.584;2023-02-28T06:28:11;-2.20;99.90
4453;DHT22;2239;48.152;11.584;2023-02-28T06:30:38;-2.20;99.90
4453;DHT22;2239;48.152;11.584;2023-02-28T06:33:03;-2.20;99.90
4453;DHT22;2239;48.152;11.584;2023-02-28T06:35:29;-2.20;99.90
4453;DHT22;2239;48.152;11.584;2023-02-28T06:37:55;-2.20;99.90
4453;DHT22;2239;48.152;11.584;2023-02-28T06:40:23;-2.20;99.90
4453;DHT22;2239;48.152;11.584;2023-02-28T06:42:49;-2.20;99.90
4453;DHT22;2239;48.152;11.584;2023-02-28T06:45:14;-2.20;99.90
4453;DHT22;2239;48.152;11.584;2023-02-28T06:47:41;-2.20;99.90
4453;DHT22;2239;48.152;11.584;2023-02-28T06:50:10;-2.20;99.90
4453;DHT22;2239;48.152;11.584;2023-02-28T06:52:36;-2.20;99.90
4453;DHT22;2239;48.152;11.584;2023-02-28T06:55:04;-2.20;99.90
4453;DHT22;2239;48.152;11.584;2023-02-28T06:57:32;-2.20;99.90
4453;DHT22;2239;48.152;11.584;2023-02-28T06:59:59;-2.20;99.90
4453;DHT22;2239;48.152;11.584;2023-02-28T07:02:25;-2.10;99.90
4453;DHT22;2239;48.152;11.584;2023-02-28T07:04:51;-2.10;99.90
4453;DHT22;2239;48.152;11.584;2023-02-28T07:07:16;-2.10;99.90
4453;DHT22;2239;48.152;11.584;2023-02-28T07:09:42;-2.10;99.90
4453;DHT22;2239;48.152;11.584;2023-02-28T07:12:07;-2.10;99.90
4453;DHT22;2239;48.152;11.584;2023-02-28T07:14:33;-2.10;99.90
4453;DHT22;2239;48.152;11.584;2023-02-28T07:16:58;-2.10;99.90
4453;DHT22;2239;48.152;11.584;2023-02-28T07:19:24;-2.10;99.90
4453;DHT22;2239;48.152;11.584;2023-02-28T07:21:50;-2.10;99.90
4453;DHT22;2239;48.152;11.584;2023-02-28T07:24:15;-2.10;99.90
4453;DHT22;2239;48.152;11.584;2023-02-28T07:26:43;-2.10;99.90
4453;DHT22;2239;48.152;11.584;2023-02-28T07:29:08;-2.10;99.90
4453;DHT22;2239;48.152;11.584;2023-02-28T07:31:34;-2.00;99.90
4453;DHT22;2239;48.152;11.584;2023-02-28T07:34:00;-2.00;99.90
4453;DHT22;2239;48.152;11.584;2023-02-28T07:36:25;-2.00;99.90
4453;DHT22;2239;48.152;11.584;2023-02-28T07:38:51;-2.10;99.90
4453;DHT22;2239;48.152;11.584;2023-02-28T07:41:19;-2.10;99.90
4453;DHT22;2239;48.152;11.584;2023-02-28T07:43:46;-2.00;99.90
4453;DHT22;2239;48.152;11.584;2023-02-28T07:46:14;-2.00;99.90
4453;DHT22;2239;48.152;11.584;2023-02-28T07:48:43;-2.00;99.90
4453;DHT22;2239;48.152;11.584;2023-02-28T07:51:09;-2.00;99.90
4453;DHT22;2239;48.152;11.584;2023-02-28T07:53:35;-1.90;99.90
4453;DHT22;2239;48.152;11.584;2023-02-28T07:56:01;-1.90;99.90
4453;DHT22;2239;48.152;11.584;2023-02-28T07:58:28;-1.90;99.90
4453;DHT22;2239;48.152;11.584;2023-02-28T08:00:54;-1.90;99.90
4453;DHT22;2239;48.152;11.584;2023-02-28T08:03:21;-1.90;99.90
4453;DHT22;2239;48.152;11.584;2023-02-28T08:05:47;-1.90;99.90
4453;DHT22;2239;48.152;11.584;2023-02-28T08:08:14;-1.90;99.90
4453;DHT22;2239;48.152;11.584;2023-02-28T08:10:40;-1.80;99.90
4453;DHT22;2239;48.152;11.584;2023-02-28T08:13:05;-1.80;99.90
4453;DHT22;2239;48.152;11.584;2023-02-28T08:15:31;-1.80;99.90
4453;DHT22;2239;48.152;11.584;2023-02-28T08:17:57;-1.80;99.90
4453;DHT22;2239;48.152;11.584;2023-02-28T08:20:24;-1.80;99.90
4453;DHT22;2239;48.152;11.584;2023-02-28T08:22:50;-1.80;99.90
4453;DHT22;2239;48.152;11.584;2023-02-28T08:25:15;-1.80;99.90
4453;DHT22;2239;48.152;11.584;2023-02-28T08:27:41;-1.80;99.90
4453;DHT22;2239;48.152;11.584;2023-02-28T08:30:08;-1.80;99.90
4453;DHT22;2239;48.152;11.584;2023-02-28T08:32:35;-1.80;99.90
4453;DHT22;2239;48.152;11.584;2023-02-28T08:35:00;-1.70;99.90
4453;DHT22;2239;48.152;11.584;2023-02-28T08:37:27;-1.70;99.90
4453;DHT22;2239;48.152;11.584;2023-02-28T08:39:52;-1.70;99.90
4453;DHT22;2239;48.152;11.584;2023-02-28T08:42:18;-1.70;99.90
4453;DHT22;2239;48.152;11.584;2023-02-28T08:44:43;-1.70;99.90
4453;DHT22;2239;48.152;11.584;2023-02-28T08:47:09;-1.70;99.90
4453;DHT22;2239;48.152;11.584;2023-02-28T08:49:34;-1.60;99.90
4453;DHT22;2239;48.152;11.584;2023-02-28T08:52:00;-1.70;99.90
4453;DHT22;2239;48.152;11.584;2023-02-28T08:54:25;-1.60;99.90
4453;DHT22;2239;48.152;11.584;2023-02-28T08:56:51;-1.60;99.90
4453;DHT22;2239;48.152;11.584;2023-02-28T08:59:17;-1.60;99.90
4453;DHT22;2239;48.152;11.584;2023-02-28T09:01:42;-1.60;99.90
4453;DHT22;2239;48.152;11.584;2023-02-28T09:04:09;-1.50;99.90
4453;DHT22;2239;48.152;11.584;2023-02-28T09:06:36;-1.40;99.90
4453;DHT22;2239;48.152;11.584;2023-02-28T09:09:02;-1.30;99.90
4453;DHT22;2239;48.152;11.584;2023-02-28T09:11:31;-1.20;99.90
4453;DHT22;2239;48.152;11.584;2023-02-28T09:13:57;-1.20;99.90
4453;DHT22;2239;48.152;11.584;2023-02-28T09:16:23;-1.10;99.90
4453;DHT22;2239;48.152;11.584;2023-02-28T09:18:49;-1.00;99.90
4453;DHT22;2239;48.152;11.584;2023-02-28T09:21:17;-1.00;99.90
4453;DHT22;2239;48.152;11.584;2023-02-28T09:23:44;-0.90;99.90
4453;DHT22;2239;48.152;11.584;2023-02-28T09:26:14;-1.00;99.90
4453;DHT22;2239;48.152;11.584;2023-02-28T09:28:41;-1.00;99.90
4453;DHT22;2239;48.152;11.584;2023-02-28T09:31:10;-1.00;99.90
4453;DHT22;2239;48.152;11.584;2023-02-28T09:33:36;-1.10;99.90
4453;DHT22;2239;48.152;11.584;2023-02-28T09:36:02;-1.00;99.90
4453;DHT22;2239;48.152;11.584;2023-02-28T09:38:29;-1.10;99.90
4453;DHT22;2239;48.152;11.584;2023-02-28T09:41:03;-1.00;99.90
4453;DHT22;2239;48.152;11.584;2023-02-28T09:43:34;-1.00;99.90
4453;DHT22;2239;48.152;11.584;2023-02-28T09:46:40;-1.00;99.90
4453;DHT22;2239;48.152;11.584;2023-02-28T09:49:11;-1.10;99.90
4453;DHT22;2239;48.152;11.584;2023-02-28T09:51:49;-1.10;99.90
4453;DHT22;2239;48.152;11.584;2023-02-28T09:54:20;-1.00;99.90
4453;DHT22;2239;48.152;11.584;2023-02-28T09:56:58;-0.90;99.90
4453;DHT22;2239;48.152;11.584;2023-02-28T10:04:57;-0.80;99.90
4453;DHT22;2239;48.152;11.584;2023-02-28T10:07:37;-0.70;99.90
4453;DHT22;2239;48.152;11.584;2023-02-28T10:10:24;-0.60;99.90
4453;DHT22;2239;48.152;11.584;2023-02-28T10:12:53;-0.50;99.90
4453;DHT22;2239;48.152;11.584;2023-02-28T10:15:23;-0.20;99.90
4453;DHT22;2239;48.152;11.584;2023-02-28T10:17:56;-0.10;99.90
4453;DHT22;2239;48.152;11.584;2023-02-28T10:20:24;0.00;99.90
4453;DHT22;2239;48.152;11.584;2023-02-28T10:23:05;0.10;99.90
4453;DHT22;2239;48.152;11.584;2023-02-28T10:25:36;0.20;99.90
4453;DHT22;2239;48.152;11.584;2023-02-28T10:28:11;0.20;99.90
4453;DHT22;2239;48.152;11.584;2023-02-28T10:30:44;0.20;99.90
4453;DHT22;2239;48.152;11.584;2023-02-28T10:35:43;0.40;99.90
4453;DHT22;2239;48.152;11.584;2023-02-28T10:38:17;0.30;99.90
4453;DHT22;2239;48.152;11.584;2023-02-28T10:40:42;0.60;99.90
4453;DHT22;2239;48.152;11.584;2023-02-28T10:45:53;0.80;99.90
4453;DHT22;2239;48.152;11.584;2023-02-28T10:56:00;1.20;98.50
4453;DHT22;2239;48.152;11.584;2023-02-28T11:01:25;1.20;98.10
4453;DHT22;2239;48.152;11.584;2023-02-28T11:03:59;1.30;98.10
4453;DHT22;2239;48.152;11.584;2023-02-28T11:06:26;1.60;98.00
4453;DHT22;2239;48.152;11.584;2023-02-28T11:08:58;1.90;97.30
4453;DHT22;2239;48.152;11.584;2023-02-28T11:11:26;2.00;96.90
4453;DHT22;2239;48.152;11.584;2023-02-28T11:13:55;1.80;96.70
4453;DHT22;2239;48.152;11.584;2023-02-28T11:16:31;1.90;96.80
4453;DHT22;2239;48.152;11.584;2023-02-28T11:18:58;1.90;96.60
4453;DHT22;2239;48.152;11.584;2023-02-28T11:21:29;1.80;96.60
4453;DHT22;2239;48.152;11.584;2023-02-28T11:24:02;1.70;96.40
4453;DHT22;2239;48.152;11.584;2023-02-28T11:26:44;1.40;96.30
4453;DHT22;2239;48.152;11.584;2023-02-28T11:29:23;1.30;97.00
4453;DHT22;2239;48.152;11.584;2023-02-28T11:32:16;1.20;97.30
4453;DHT22;2239;48.152;11.584;2023-02-28T11:34:43;1.10;97.70
4453;DHT22;2239;48.152;11.584;2023-02-28T11:37:18;1.20;97.80
4453;DHT22;2239;48.152;11.584;2023-02-28T11:39:45;1.30;97.70
4453;DHT22;2239;48.152;11.584;2023-02-28T11:45:34;1.70;97.00
4453;DHT22;2239;48.152;11.584;2023-02-28T11:50:58;1.70;96.80
4453;DHT22;2239;48.152;11.584;2023-02-28T11:56:18;2.10;96.70
4453;DHT22;2239;48.152;11.584;2023-02-28T11:59:18;2.60;96.30
4453;DHT22;2239;48.152;11.584;2023-02-28T12:05:01;3.10;94.60
4453;DHT22;2239;48.152;11.584;2023-02-28T12:08:00;3.40;94.40
4453;DHT22;2239;48.152;11.584;2023-02-28T12:10:30;3.80;93.50
4453;DHT22;2239;48.152;11.584;2023-02-28T12:13:18;3.90;92.90
4453;DHT22;2239;48.152;11.584;2023-02-28T12:16:00;3.80;92.70
4453;DHT22;2239;48.152;11.584;2023-02-28T12:18:57;3.80;92.70
4453;DHT22;2239;48.152;11.584;2023-02-28T12:24:34;4.10;92.70
4453;DHT22;2239;48.152;11.584;2023-02-28T12:27:06;4.30;92.00
4453;DHT22;2239;48.152;11.584;2023-02-28T12:29:46;4.30;92.00
4453;DHT22;2239;48.152;11.584;2023-02-28T12:32:14;4.40;91.60
4453;DHT22;2239;48.152;11.584;2023-02-28T12:34:47;4.70;91.70
4453;DHT22;2239;48.152;11.584;2023-02-28T12:37:20;4.70;90.60
4453;DHT22;2239;48.152;11.584;2023-02-28T12:39:51;4.40;90.80
4453;DHT22;2239;48.152;11.584;2023-02-28T12:42:26;4.20;91.30
4453;DHT22;2239;48.152;11.584;2023-02-28T12:44:58;4.10;91.60
4453;DHT22;2239;48.152;11.584;2023-02-28T12:47:24;4.30;91.60
4453;DHT22;2239;48.152;11.584;2023-02-28T12:49:56;4.20;91.00
4453;DHT22;2239;48.152;11.584;2023-02-28T12:56:00;4.10;91.60
4453;DHT22;2239;48.152;11.584;2023-02-28T12:58:41;4.30;90.90
4453;DHT22;2239;48.152;11.584;2023-02-28T13:01:47;4.70;90.70
4453;DHT22;2239;48.152;11.584;2023-02-28T13:09:56;4.40;90.20
4453;DHT22;2239;48.152;11.584;2023-02-28T13:12:23;4.40;90.30
4453;DHT22;2239;48.152;11.584;2023-02-28T13:14:49;4.30;90.30
4453;DHT22;2239;48.152;11.584;2023-02-28T13:17:20;4.20;90.60
4453;DHT22;2239;48.152;11.584;2023-02-28T13:24:55;4.20;91.10
4453;DHT22;2239;48.152;11.584;2023-02-28T13:27:33;4.10;91.00
4453;DHT22;2239;48.152;11.584;2023-02-28T13:30:00;4.10;91.00
4453;DHT22;2239;48.152;11.584;2023-02-28T13:39:56;3.80;91.70
4453;DHT22;2239;48.152;11.584;2023-02-28T13:55:32;4.40;91.20
4453;DHT22;2239;48.152;11.584;2023-02-28T14:01:03;4.50;90.40
4453;DHT22;2239;48.152;11.584;2023-02-28T14:03:41;4.20;90.50
4453;DHT22;2239;48.152;11.584;2023-02-28T14:06:33;3.90;90.90
4453;DHT22;2239;48.152;11.584;2023-02-28T14:09:02;3.80;91.40
4453;DHT22;2239;48.152;11.584;2023-02-28T14:11:38;3.80;91.50
4453;DHT22;2239;48.152;11.584;2023-02-28T14:14:06;3.80;91.50
4453;DHT22;2239;48.152;11.584;2023-02-28T14:16:41;4.00;91.50
4453;DHT22;2239;48.152;11.584;2023-02-28T14:19:36;4.10;91.50
4453;DHT22;2239;48.152;11.584;2023-02-28T14:24:54;4.20;90.90
4453;DHT22;2239;48.152;11.584;2023-02-28T14:30:24;4.40;90.60
4453;DHT22;2239;48.152;11.584;2023-02-28T14:33:01;4.40;90.70
4453;DHT22;2239;48.152;11.584;2023-02-28T14:35:59;4.40;90.50
4453;DHT22;2239;48.152;11.584;2023-02-28T14:38:29;4.30;90.80
4453;DHT22;2239;48.152;11.584;2023-02-28T14:40:58;4.10;90.90
4453;DHT22;2239;48.152;11.584;2023-02-28T14:43:27;4.10;91.00
4453;DHT22;2239;48.152;11.584;2023-02-28T14:45:56;4.00;91.00
4453;DHT22;2239;48.152;11.584;2023-02-28T14:48:22;3.90;91.20
4453;DHT22;2239;48.152;11.584;2023-02-28T14:50:51;3.80;91.30
4453;DHT22;2239;48.152;11.584;2023-02-28T14:53:19;3.80;91.60
4453;DHT22;2239;48.152;11.584;2023-02-28T14:55:47;3.70;91.70
4453;DHT22;2239;48.152;11.584;2023-02-28T14:58:26;3.70;91.50
4453;DHT22;2239;48.152;11.584;2023-02-28T15:00:54;3.70;91.70
4453;DHT22;2239;48.152;11.584;2023-02-28T15:06:02;3.80;91.60
4453;DHT22;2239;48.152;11.584;2023-02-28T15:08:28;3.80;91.80
4453;DHT22;2239;48.152;11.584;2023-02-28T15:10:55;3.80;91.80
4453;DHT22;2239;48.152;11.584;2023-02-28T15:13:23;3.90;91.70
4453;DHT22;2239;48.152;11.584;2023-02-28T15:15:58;3.90;91.60
4453;DHT22;2239;48.152;11.584;2023-02-28T15:21:10;3.90;91.80
4453;DHT22;2239;48.152;11.584;2023-02-28T15:23:38;3.80;92.20
4453;DHT22;2239;48.152;11.584;2023-02-28T15:26:06;3.80;92.30
4453;DHT22;2239;48.152;11.584;2023-02-28T15:28:31;3.80;92.60
4453;DHT22;2239;48.152;11.584;2023-02-28T15:31:00;3.80;92.70
4453;DHT22;2239;48.152;11.584;2023-02-28T15:33:30;3.80;92.60
4453;DHT22;2239;48.152;11.584;2023-02-28T15:36:28;3.90;92.50
4453;DHT22;2239;48.152;11.584;2023-02-28T15:38:54;4.00;92.90
4453;DHT22;2239;48.152;11.584;2023-02-28T15:41:36;4.00;92.70
4453;DHT22;2239;48.152;11.584;2023-02-28T15:44:27;4.00;92.80
4453;DHT22;2239;48.152;11.584;2023-02-28T15:46:59;3.90;92.40
4453;DHT22;2239;48.152;11.584;2023-02-28T15:49:26;3.90;92.90
4453;DHT22;2239;48.152;11.584;2023-02-28T15:51:55;3.80;92.70
4453;DHT22;2239;48.152;11.584;2023-02-28T15:54:28;3.70;93.20
4453;DHT22;2239;48.152;11.584;2023-02-28T15:57:03;3.60;93.30
4453;DHT22;2239;48.152;11.584;2023-02-28T15:59:31;3.50;93.50
4453;DHT22;2239;48.152;11.584;2023-02-28T16:04:37;3.30;94.00
4453;DHT22;2239;48.152;11.584;2023-02-28T16:07:19;3.20;94.40
4453;DHT22;2239;48.152;11.584;2023-02-28T16:09:44;3.20;94.70
4453;DHT22;2239;48.152;11.584;2023-02-28T16:12:10;3.10;94.70
4453;DHT22;2239;48.152;11.584;2023-02-28T16:14:39;3.00;94.70
4453;DHT22;2239;48.152;11.584;2023-02-28T16:17:07;3.00;95.00
4453;DHT22;2239;48.152;11.584;2023-02-28T16:19:40;3.00;95.10
4453;DHT22;2239;48.152;11.584;2023-02-28T16:22:05;2.90;95.10
4453;DHT22;2239;48.152;11.584;2023-02-28T16:24:31;2.80;95.40
4453;DHT22;2239;48.152;11.584;2023-02-28T16:26:57;2.80;95.40
4453;DHT22;2239;48.152;11.584;2023-02-28T16:29:35;2.80;95.40
4453;DHT22;2239;48.152;11.584;2023-02-28T16:32:04;2.70;95.60
4453;DHT22;2239;48.152;11.584;2023-02-28T16:34:30;2.70;95.80
4453;DHT22;2239;48.152;11.584;2023-02-28T16:36:56;2.70;95.80
4453;DHT22;2239;48.152;11.584;2023-02-28T16:39:22;2.70;95.80
4453;DHT22;2239;48.152;11.584;2023-02-28T16:41:49;2.60;95.90
4453;DHT22;2239;48.152;11.584;2023-02-28T16:44:29;2.60;96.10
4453;DHT22;2239;48.152;11.584;2023-02-28T16:46:56;2.50;96.10
4453;DHT22;2239;48.152;11.584;2023-02-28T16:49:22;2.50;96.30
4453;DHT22;2239;48.152;11.584;2023-02-28T16:51:47;2.40;96.40
4453;DHT22;2239;48.152;11.584;2023-02-28T16:54:13;2.50;96.60
4453;DHT22;2239;48.152;11.584;2023-02-28T16:56:43;2.40;96.60
4453;DHT22;2239;48.152;11.584;2023-02-28T16:59:09;2.40;96.80
4453;DHT22;2239;48.152;11.584;2023-02-28T17:01:35;2.40;97.20
4453;DHT22;2239;48.152;11.584;2023-02-28T17:04:01;2.40;97.10
4453;DHT22;2239;48.152;11.584;2023-02-28T17:06:28;2.40;97.10
4453;DHT22;2239;48.152;11.584;2023-02-28T17:08:54;2.30;97.10
4453;DHT22;2239;48.152;11.584;2023-02-28T17:11:20;2.30;97.40
4453;DHT22;2239;48.152;11.584;2023-02-28T17:13:47;2.30;97.60
4453;DHT22;2239;48.152;11.584;2023-02-28T17:16:28;2.20;97.60
4453;DHT22;2239;48.152;11.584;2023-02-28T17:18:57;2.30;97.80
4453;DHT22;2239;48.152;11.584;2023-02-28T17:21:23;2.20;97.90
4453;DHT22;2239;48.152;11.584;2023-02-28T17:23:49;2.10;97.90
4453;DHT22;2239;48.152;11.584;2023-02-28T17:26:16;2.10;98.30
4453;DHT22;2239;48.152;11.584;2023-02-28T17:28:52;2.00;98.40
4453;DHT22;2239;48.152;11.584;2023-02-28T17:31:19;2.00;99.00
4453;DHT22;2239;48.152;11.584;2023-02-28T17:33:44;2.10;99.00
4453;DHT22;2239;48.152;11.584;2023-02-28T17:36:13;2.00;98.90
4453;DHT22;2239;48.152;11.584;2023-02-28T17:38:40;2.10;99.20
4453;DHT22;2239;48.152;11.584;2023-02-28T17:41:06;2.00;99.20
4453;DHT22;2239;48.152;11.584;2023-02-28T17:43:31;2.10;99.20
4453;DHT22;2239;48.152;11.584;2023-02-28T17:45:57;2.00;99.10
4453;DHT22;2239;48.152;11.584;2023-02-28T17:48:24;2.10;99.30
4453;DHT22;2239;48.152;11.584;2023-02-28T17:50:49;2.00;99.30
4453;DHT22;2239;48.152;11.584;2023-02-28T17:53:15;2.10;99.40
4453;DHT22;2239;48.152;11.584;2023-02-28T17:55:41;2.00;99.50
4453;DHT22;2239;48.152;11.584;2023-02-28T17:58:09;2.00;99.60
4453;DHT22;2239;48.152;11.584;2023-02-28T18:00:36;2.00;99.50
4453;DHT22;2239;48.152;11.584;2023-02-28T18:03:03;2.00;99.90
4453;DHT22;2239;48.152;11.584;2023-02-28T18:05:28;1.90;99.80
4453;DHT22;2239;48.152;11.584;2023-02-28T18:07:55;2.00;99.80